Time;durP1;ratioP1;P1;durP2;ratioP2;P2;SDS_P1;SDS_P2;PMS_P1;PMS_P2;Temp;Humidity;BMP_temperature;BMP_pressure;BME280_temperature;BME280_humidity;BME280_pressure;Samples;Min_cycle;Max_cycle;Signal;HPM_P1;HPM_P2
2021/11/30 00:01:13;;;;;;;9.48;5.18;;;;;;;3.07;72.71;98671.81;5009449;28;20053;-65
2021/11/30 00:03:42;;;;;;;;;;;;;;;3.09;73.33;98665.09;5014174;28;20077;-65
2021/11/30 00:06:12;;;;;;;12.10;4.93;;;;;;;3.14;72.67;98678.59;5011273;28;19961;-65
2021/11/30 00:08:43;;;;;;;10.38;5.35;;;;;;;3.14;72.71;98688.69;5012391;28;20061;-66
2021/11/30 00:11:13;;;;;;;9.40;5.13;;;;;;;3.23;73.09;98684.59;5009014;28;20045;-66
2021/11/30 00:13:43;;;;;;;9.45;5.32;;;;;;;3.21;72.50;98693.84;5013912;28;20504;-65
2021/11/30 00:16:13;;;;;;;9.80;5.10;;;;;;;3.23;72.29;98692.16;5011330;28;20034;-65
2021/11/30 00:18:43;;;;;;;9.55;4.80;;;;;;;3.30;72.52;98700.66;5011279;28;20050;-65
2021/11/30 00:21:12;;;;;;;8.57;4.80;;;;;;;3.20;72.16;98689.59;5010735;28;20056;-65
2021/11/30 00:23:43;;;;;;;11.18;5.28;;;;;;;3.23;71.81;98698.88;5013605;28;20045;-65
2021/11/30 00:26:12;;;;;;;8.40;4.78;;;;;;;3.24;72.52;98703.06;5009159;28;20056;-65
2021/11/30 00:28:42;;;;;;;10.98;5.38;;;;;;;3.24;72.23;98705.59;5013538;28;20053;-65
2021/11/30 00:31:11;;;;;;;11.20;5.40;;;;;;;3.21;72.49;98720.72;5011505;28;20065;-65
2021/11/30 00:33:41;;;;;;;8.68;4.55;;;;;;;3.23;72.09;98707.28;5013532;28;20132;-65
2021/11/30 00:36:10;;;;;;;6.55;4.00;;;;;;;3.26;71.92;98724.94;5008522;28;20451;-65
2021/11/30 00:38:39;;;;;;;9.98;5.25;;;;;;;3.31;72.51;98717.47;5011678;28;20057;-65
2021/11/30 00:41:11;;;;;;;9.18;4.65;;;;;;;3.33;72.75;98725.91;5013701;28;20499;-65
2021/11/30 00:43:40;;;;;;;10.75;4.75;;;;;;;3.31;72.19;98717.47;5013172;28;20045;-66
2021/11/30 00:46:14;;;;;;;8.43;4.68;;;;;;;3.34;72.01;98723.38;5005179;28;20550;-65
2021/11/30 00:48:44;;;;;;;9.18;5.45;;;;;;;3.35;72.26;98731.81;5011003;28;20053;-66
2021/11/30 00:51:17;;;;;;;8.40;4.10;;;;;;;3.32;71.84;98729.25;5008055;28;20462;-66
2021/11/30 00:53:48;;;;;;;8.27;4.50;;;;;;;3.24;72.16;98728.28;5013616;28;20495;-65
2021/11/30 00:56:20;;;;;;;8.98;4.43;;;;;;;3.19;73.12;98737.50;5013464;28;20062;-65
2021/11/30 00:58:50;;;;;;;10.82;4.57;;;;;;;3.18;72.74;98736.63;5009949;28;20048;-66
2021/11/30 01:01:19;;;;;;;6.60;3.65;;;;;;;3.10;73.56;98734.81;5013382;28;20477;-66
2021/11/30 01:03:49;;;;;;;8.48;4.13;;;;;;;2.91;73.34;98736.25;5013323;28;20041;-66
2021/11/30 01:06:18;;;;;;;8.18;4.47;;;;;;;2.95;72.92;98737.16;5016072;28;20121;-65
2021/11/30 01:08:47;;;;;;;7.40;4.25;;;;;;;2.95;73.05;98737.97;5014930;28;20041;-65
2021/11/30 01:11:18;;;;;;;6.45;4.25;;;;;;;3.01;73.16;98744.78;5017294;28;20046;-65
2021/11/30 01:13:47;;;;;;;8.40;4.65;;;;;;;2.99;72.51;98751.47;5016743;28;20050;-65
2021/11/30 01:16:16;;;;;;;6.47;3.90;;;;;;;3.04;72.34;98749.88;5012882;28;20033;-65
2021/11/30 01:18:46;;;;;;;10.45;3.90;;;;;;;3.09;72.42;98745.75;5014216;28;20046;-65
2021/11/30 01:21:15;;;;;;;6.75;3.88;;;;;;;3.17;72.17;98749.19;5013826;28;20042;-65
2021/11/30 01:23:44;;;;;;;8.10;3.97;;;;;;;3.19;72.00;98752.63;5016319;28;20065;-65
2021/11/30 01:26:13;;;;;;;6.90;3.90;;;;;;;3.17;72.30;98751.72;5016522;28;20060;-65
2021/11/30 01:28:44;;;;;;;7.00;3.80;;;;;;;3.17;71.99;98754.25;5015454;28;20125;-65
2021/11/30 01:31:14;;;;;;;7.38;3.55;;;;;;;3.18;71.32;98745.88;5014120;28;20586;-65
2021/11/30 01:33:43;;;;;;;6.57;3.92;;;;;;;3.13;72.24;98744.94;5012700;28;20104;-65
2021/11/30 01:36:13;;;;;;;7.32;3.70;;;;;;;3.14;72.05;98744.13;5013822;28;20046;-65
2021/11/30 01:38:43;;;;;;;7.30;3.85;;;;;;;3.15;71.75;98740.78;5013844;28;20522;-65
2021/11/30 01:41:14;;;;;;;6.63;3.65;;;;;;;3.09;71.71;98744.09;5014569;28;20045;-65
2021/11/30 01:43:47;;;;;;;6.50;3.53;;;;;;;3.07;71.95;98743.19;5016172;28;20523;-65
2021/11/30 01:46:27;;;;;;;7.97;3.55;;;;;;;3.07;71.80;98747.41;5013537;28;20046;-65
2021/11/30 01:51:35;;;;;;;6.97;3.65;;;;;;;3.07;71.47;98747.41;5013591;28;20049;-65
2021/11/30 01:54:05;;;;;;;5.28;3.05;;;;;;;3.09;71.83;98736.53;5015769;28;20057;-65
2021/11/30 01:56:34;;;;;;;7.10;3.90;;;;;;;3.08;72.21;98749.09;5015775;28;20041;-65
2021/11/30 01:59:06;;;;;;;6.97;3.92;;;;;;;3.13;71.40;98758.41;5013823;28;20499;-65
2021/11/30 02:01:35;;;;;;;7.20;3.75;;;;;;;3.10;72.10;98757.50;5013595;28;20116;-65
2021/11/30 02:04:05;;;;;;;6.90;3.65;;;;;;;3.12;71.64;98760.91;5015771;28;20060;-65
2021/11/30 02:06:34;;;;;;;7.15;3.97;;;;;;;3.10;72.55;98758.34;5013646;28;20049;-65
2021/11/30 02:09:04;;;;;;;;;;;;;;;3.12;72.46;98766.78;5013841;28;20117;-65
2021/11/30 02:11:33;;;;;;;5.80;3.10;;;;;;;3.06;71.72;98768.38;5015569;28;20359;-66
2021/11/30 02:14:03;;;;;;;;;;;;;;;3.05;71.93;98764.16;5013422;28;20125;-65
2021/11/30 02:16:33;;;;;;;6.23;3.63;;;;;;;3.04;72.75;98765.00;5012435;28;19921;-65
2021/11/30 02:19:04;;;;;;;8.35;4.03;;;;;;;3.10;72.01;98765.06;5014556;28;20506;-65
2021/11/30 02:21:37;;;;;;;;;;;;;;;3.09;72.16;98774.31;5014923;28;20126;-65
2021/11/30 02:24:07;;;;;;;6.22;3.90;;;;;;;3.09;72.25;98778.50;5011801;28;19921;-65
2021/11/30 02:26:39;;;;;;;6.85;3.58;;;;;;;3.17;72.15;98774.41;5013062;28;20088;-65
2021/11/30 02:29:11;;;;;;;7.40;4.53;;;;;;;3.18;72.07;98776.13;5013007;28;20046;-65
2021/11/30 02:31:46;;;;;;;7.25;4.15;;;;;;;3.23;72.00;98789.63;5013531;28;20049;-66
2021/11/30 02:34:16;;;;;;;6.40;3.90;;;;;;;3.12;72.42;98788.66;5011332;28;20092;-65
2021/11/30 02:36:53;;;;;;;10.35;4.10;;;;;;;3.20;72.09;98789.56;5011549;28;20046;-65
2021/11/30 02:39:24;;;;;;;7.75;3.50;;;;;;;3.25;72.43;98796.38;5011269;28;20513;-65
2021/11/30 02:41:56;;;;;;;7.60;3.72;;;;;;;3.19;72.27;98803.03;5015703;28;20041;-65
2021/11/30 02:44:26;;;;;;;8.43;4.00;;;;;;;3.05;72.68;98794.41;5014879;28;20038;-65
2021/11/30 02:46:58;;;;;;;6.25;4.13;;;;;;;3.14;72.89;98802.94;5011516;28;20069;-67
2021/11/30 02:49:30;;;;;;;6.82;4.10;;;;;;;3.20;72.54;98799.66;5011261;28;20503;-69
2021/11/30 02:52:05;;;;;;;6.88;3.67;;;;;;;3.19;72.41;98792.94;5009432;28;20121;-65
2021/11/30 02:54:36;;;;;;;7.15;3.88;;;;;;;3.17;72.62;98804.66;5015258;28;20053;-65
2021/11/30 02:57:06;;;;;;;8.40;4.30;;;;;;;3.29;72.79;98804.81;5014744;28;20053;-65
2021/11/30 02:59:39;;;;;;;6.88;3.67;;;;;;;3.27;71.69;98816.56;5011369;28;20077;-65
2021/11/30 03:02:13;;;;;;;7.32;3.75;;;;;;;3.33;72.04;98811.63;5011082;28;20049;-65
2021/11/30 03:04:45;;;;;;;7.10;4.07;;;;;;;3.20;72.46;98814.78;5011901;28;20042;-66
2021/11/30 03:07:18;;;;;;;6.93;3.90;;;;;;;3.10;71.63;98812.94;5010992;28;20128;-65
2021/11/30 03:09:48;;;;;;;6.65;3.70;;;;;;;3.02;71.72;98819.56;5013338;28;20064;-65
2021/11/30 03:12:17;;;;;;;7.25;3.55;;;;;;;3.01;71.58;98812.81;5012424;28;20077;-65
2021/11/30 03:14:47;;;;;;;5.63;3.53;;;;;;;3.00;71.71;98823.75;5013707;28;20069;-67
2021/11/30 03:17:17;;;;;;;6.72;3.75;;;;;;;3.05;72.44;98820.44;5012525;28;20057;-65
2021/11/30 03:19:47;;;;;;;6.82;3.85;;;;;;;3.04;72.16;98823.81;5012276;28;20096;-65
2021/11/30 03:22:18;;;;;;;6.93;3.60;;;;;;;3.17;71.59;98824.81;5012679;28;20049;-66
2021/11/30 03:24:47;;;;;;;6.28;3.30;;;;;;;3.06;72.51;98821.31;5015263;28;20100;-65
2021/11/30 03:27:16;;;;;;;6.45;3.53;;;;;;;3.01;72.29;98817.88;5011951;28;20096;-65
2021/11/30 03:29:45;;;;;;;6.78;3.95;;;;;;;2.95;72.82;98827.88;5010954;28;20069;-66
2021/11/30 03:33:58;;;;;;;7.32;4.03;;;;;;;3.04;72.65;98820.44;5011695;28;20128;-66
2021/11/30 03:35:05;;;;;;;6.88;3.95;;;;;;;2.99;73.26;98829.59;5008532;28;20041;-66
2021/11/30 03:37:36;;;;;;;6.68;3.85;;;;;;;3.03;73.14;98831.31;5012274;28;20046;-66
2021/11/30 03:40:10;;;;;;;7.13;4.10;;;;;;;2.97;72.91;98828.72;5012050;28;20081;-65
2021/11/30 03:42:40;;;;;;;7.45;4.03;;;;;;;2.98;72.98;98833.78;5011518;28;20064;-65
2021/11/30 03:45:10;;;;;;;6.75;3.75;;;;;;;3.04;73.14;98843.13;5013772;28;20525;-65
2021/11/30 03:47:39;;;;;;;5.82;3.30;;;;;;;3.03;72.18;98828.81;5010543;28;20129;-66
2021/11/30 03:50:09;;;;;;;6.78;4.07;;;;;;;2.96;72.73;98837.09;5004733;28;20050;-66
2021/11/30 03:52:40;;;;;;;6.85;3.65;;;;;;;2.95;72.42;98837.94;5014122;28;20492;-65
2021/11/30 03:55:10;;;;;;;6.47;3.63;;;;;;;3.00;72.41;98836.34;5007011;28;20042;-66
2021/11/30 03:57:59;;;;;;;7.13;3.55;;;;;;;3.10;73.31;98833.97;4994180;28;20077;-65
2021/11/30 04:00:29;;;;;;;8.35;4.30;;;;;;;3.22;72.58;98829.13;5011410;28;20050;-67
2021/11/30 04:02:58;;;;;;;7.32;4.03;;;;;;;3.23;73.28;98829.97;5011416;28;20071;-65
2021/11/30 04:05:28;;;;;;;7.32;4.55;;;;;;;3.06;72.94;98842.31;5009319;28;20132;-65
2021/11/30 04:07:59;;;;;;;9.73;4.15;;;;;;;3.02;72.47;98842.25;5011171;28;20058;-65
2021/11/30 04:10:28;;;;;;;5.63;3.22;;;;;;;2.99;72.72;98854.81;5007753;28;20403;-66
2021/11/30 04:12:57;;;;;;;7.18;3.75;;;;;;;3.01;72.53;98843.06;5009709;28;20117;-66
2021/11/30 04:15:27;;;;;;;7.80;3.75;;;;;;;2.94;72.53;98853.88;5009851;28;20054;-65
2021/11/30 04:17:56;;;;;;;7.88;3.72;;;;;;;2.91;72.06;98846.25;5006544;28;20072;-65
2021/11/30 04:20:25;;;;;;;6.85;3.45;;;;;;;2.98;72.51;98846.38;5010179;28;20093;-65
2021/11/30 04:22:54;;;;;;;6.43;3.33;;;;;;;2.87;72.67;98850.41;5005123;28;20416;-65
2021/11/30 04:25:25;;;;;;;7.07;4.15;;;;;;;2.88;73.02;98852.09;5013265;28;20092;-65
2021/11/30 04:27:54;;;;;;;9.75;3.70;;;;;;;2.94;73.38;98848.84;5011695;28;20137;-66
2021/11/30 04:30:23;;;;;;;5.20;3.17;;;;;;;3.04;72.79;98843.13;5008696;28;20073;-65
2021/11/30 04:32:53;;;;;;;7.75;3.97;;;;;;;2.97;73.06;98847.22;5012661;28;20065;-66
2021/11/30 04:35:22;;;;;;;;;;;;;;;2.98;72.71;98853.09;5009294;28;20128;-65
2021/11/30 04:37:51;;;;;;;7.33;3.73;;;;;;;3.00;72.38;98846.44;5013954;28;19961;-65
2021/11/30 04:40:20;;;;;;;8.27;3.50;;;;;;;3.01;73.19;98863.22;5017661;28;20491;-65
2021/11/30 04:42:51;;;;;;;6.60;3.80;;;;;;;3.10;72.70;98855.81;5015258;28;20496;-65
2021/11/30 04:45:24;;;;;;;9.70;3.85;;;;;;;3.14;73.04;98855.03;5012968;28;20106;-66
2021/11/30 04:47:56;;;;;;;7.82;3.65;;;;;;;2.99;72.79;98853.13;5015193;28;20068;-65
2021/11/30 04:50:27;;;;;;;7.93;4.00;;;;;;;3.03;72.92;98857.38;5015523;28;20053;-66
2021/11/30 04:52:58;;;;;;;7.13;3.90;;;;;;;3.04;72.65;98858.25;5010027;28;20062;-66
2021/11/30 04:55:29;;;;;;;7.55;3.70;;;;;;;3.06;72.36;98859.09;5014872;28;20046;-65
2021/11/30 04:58:02;;;;;;;8.38;4.25;;;;;;;3.03;72.71;98864.09;5015125;28;20392;-65
2021/11/30 05:00:33;;;;;;;7.05;3.53;;;;;;;2.96;72.62;98874.91;4999485;28;20389;-65
2021/11/30 05:03:03;;;;;;;5.82;3.63;;;;;;;2.79;71.95;98876.28;4997028;28;20046;-66
2021/11/30 05:05:32;;;;;;;4.75;3.40;;;;;;;2.83;72.41;98873.03;5014336;28;20053;-66
2021/11/30 05:08:01;;;;;;;9.93;4.18;;;;;;;2.79;73.01;98871.25;5016577;28;20053;-65
2021/11/30 05:10:30;;;;;;;8.75;4.07;;;;;;;2.81;73.36;98884.75;5016847;28;20073;-65
2021/11/30 05:13:02;;;;;;;8.85;3.53;;;;;;;2.84;72.70;98879.72;5015240;28;20042;-67
2021/11/30 05:15:32;;;;;;;8.68;4.07;;;;;;;2.70;72.97;98892.97;5011772;28;20442;-65
2021/11/30 05:18:01;;;;;;;;;;;;;;;2.66;72.74;98893.72;5008102;28;20069;-65
2021/11/30 05:20:30;;;;;;;7.30;3.78;;;;;;;2.46;73.25;98892.53;5015328;28;19928;-65
2021/11/30 05:23:00;;;;;;;8.05;3.88;;;;;;;2.56;73.56;98899.44;5015431;28;20120;-66
2021/11/30 05:25:34;;;;;;;7.72;4.68;;;;;;;2.55;73.66;98897.72;5015923;28;20042;-65
2021/11/30 05:28:06;;;;;;;10.38;5.30;;;;;;;2.62;73.99;98899.53;5004253;28;20042;-65
2021/11/30 05:30:39;;;;;;;9.55;3.90;;;;;;;2.77;73.32;98903.13;5014332;28;20042;-65
2021/11/30 05:33:11;;;;;;;8.25;4.57;;;;;;;2.78;73.08;98904.84;5010938;28;20473;-66
2021/11/30 05:35:42;;;;;;;7.07;3.47;;;;;;;2.75;73.42;98894.69;5004784;28;20492;-65
2021/11/30 05:38:12;;;;;;;9.73;4.30;;;;;;;2.59;73.60;98901.16;5005754;28;20446;-65
2021/11/30 05:40:42;;;;;;;8.10;4.20;;;;;;;2.69;73.40;98908.03;5016525;28;20373;-65
2021/11/30 05:43:13;;;;;;;8.45;4.55;;;;;;;2.71;73.24;98908.94;5006742;28;20140;-65
2021/11/30 05:45:43;;;;;;;8.02;3.85;;;;;;;2.71;73.73;98904.72;5010639;28;20107;-66
2021/11/30 05:48:13;;;;;;;9.05;4.65;;;;;;;2.61;73.00;98902.88;5012406;28;20125;-65
2021/11/30 05:50:43;;;;;;;8.73;4.47;;;;;;;2.63;73.62;98905.41;5003302;28;20056;-66
2021/11/30 05:53:12;;;;;;;8.77;3.90;;;;;;;2.62;72.99;98903.72;5014038;28;20041;-65
2021/11/30 05:55:44;;;;;;;7.95;4.40;;;;;;;2.60;73.75;98901.16;5010209;28;20034;-65
2021/11/30 05:58:17;;;;;;;7.68;4.25;;;;;;;2.73;73.07;98910.63;5013282;28;20088;-65
2021/11/30 06:00:48;;;;;;;8.57;4.50;;;;;;;2.76;72.69;98919.09;5004513;28;20046;-65
2021/11/30 06:03:28;;;;;;;6.53;3.33;;;;;;;2.83;73.56;98913.34;5013663;28;20069;-65
2021/11/30 06:05:57;;;;;;;9.00;4.45;;;;;;;2.68;72.85;98909.72;5009723;28;20077;-65
2021/11/30 06:08:27;;;;;;;9.30;4.13;;;;;;;2.72;72.93;98903.91;5011298;28;20389;-65
2021/11/30 06:10:56;;;;;;;8.30;3.97;;;;;;;2.79;72.46;98901.47;5014661;28;20042;-65
2021/11/30 06:13:28;;;;;;;6.65;3.72;;;;;;;2.79;72.46;98911.56;5015855;28;20065;-65
2021/11/30 06:15:57;;;;;;;8.82;4.30;;;;;;;2.88;72.07;98915.09;5015393;28;20125;-65
2021/11/30 06:18:26;;;;;;;9.38;4.32;;;;;;;2.79;72.56;98906.53;5015739;28;20514;-65
2021/11/30 06:20:57;;;;;;;9.35;4.13;;;;;;;2.73;72.24;98913.16;5008174;28;20069;-65
2021/11/30 06:23:27;;;;;;;9.68;4.68;;;;;;;2.71;72.83;98914.78;5013164;28;20120;-65
2021/11/30 06:25:56;;;;;;;9.07;4.53;;;;;;;2.67;71.95;98908.00;5013491;28;20046;-65
2021/11/30 06:28:27;;;;;;;8.60;4.50;;;;;;;2.65;72.81;98909.66;5009501;28;20124;-65
2021/11/30 06:30:56;;;;;;;11.85;5.30;;;;;;;2.82;71.95;98911.63;5011982;28;20045;-65
2021/11/30 06:33:31;;;;;;;7.63;4.00;;;;;;;2.85;72.75;98909.16;5012111;28;20050;-65
2021/11/30 06:36:01;;;;;;;;;;;;;;;2.89;72.25;98910.91;5008836;28;20069;-65
2021/11/30 06:38:30;;;;;;;8.55;4.68;;;;;;;2.84;72.27;98915.00;5010219;28;19925;-65
2021/11/30 06:41:00;;;;;;;8.30;4.07;;;;;;;2.75;72.82;98910.66;5007744;28;20057;-65
2021/11/30 06:43:31;;;;;;;6.78;3.15;;;;;;;2.64;72.76;98902.91;5012649;28;20125;-65
2021/11/30 06:46:00;;;;;;;8.95;4.50;;;;;;;2.58;72.51;98912.88;5014863;28;20049;-65
2021/11/30 06:48:30;;;;;;;9.48;4.50;;;;;;;2.57;72.97;98922.91;5015147;28;20527;-65
2021/11/30 06:50:59;;;;;;;6.45;3.30;;;;;;;2.66;73.04;98921.41;5011459;28;20439;-65
2021/11/30 06:53:33;;;;;;;6.50;3.13;;;;;;;2.63;72.20;98928.94;5004957;28;20096;-66
2021/11/30 06:56:05;;;;;;;8.65;4.03;;;;;;;2.64;73.04;98928.09;5012673;28;20050;-65
2021/11/30 06:58:36;;;;;;;9.18;4.22;;;;;;;2.63;72.62;98930.59;5012527;28;20050;-65
2021/11/30 07:01:07;;;;;;;6.40;3.72;;;;;;;2.67;71.96;98919.75;5008724;28;20124;-65
2021/11/30 07:03:37;;;;;;;5.20;2.63;;;;;;;2.71;71.96;98913.97;5014171;28;20065;-67
2021/11/30 07:06:12;;;;;;;6.85;3.65;;;;;;;2.77;71.47;98913.22;5009287;28;20133;-65
2021/11/30 07:08:52;;;;;;;5.97;3.20;;;;;;;2.79;70.64;98927.53;5008274;28;20081;-65
2021/11/30 07:11:34;;;;;;;;;;;;;;;2.85;70.22;98929.31;5001109;28;20069;-65
2021/11/30 07:14:05;;;;;;;7.78;3.70;;;;;;;2.86;69.44;98943.59;5011989;28;20292;-65
2021/11/30 07:16:35;;;;;;;9.32;4.97;;;;;;;2.90;69.66;98937.81;5012089;28;20046;-65
2021/11/30 07:19:06;;;;;;;7.78;4.18;;;;;;;2.90;70.49;98955.44;5010544;28;20042;-65
2021/11/30 07:21:35;;;;;;;8.70;4.20;;;;;;;2.96;69.80;98946.31;5008253;28;20129;-65
2021/11/30 07:24:05;;;;;;;9.70;4.60;;;;;;;3.04;69.51;98951.50;5014606;28;20508;-65
2021/11/30 07:26:34;;;;;;;12.63;5.28;;;;;;;3.03;69.43;98948.13;5006946;28;20050;-65
2021/11/30 07:29:05;;;;;;;;;;;;;;;3.08;70.38;98938.97;5013372;28;20472;-65
2021/11/30 07:31:35;;;;;;;7.60;4.03;;;;;;;3.08;69.71;98950.72;5011961;28;19921;-65
2021/11/30 07:34:04;;;;;;;9.30;5.10;;;;;;;3.02;70.11;98935.50;5011748;28;20052;-65
2021/11/30 07:36:33;;;;;;;11.95;5.10;;;;;;;2.97;69.94;98942.97;5014050;28;20053;-65
2021/11/30 07:39:04;;;;;;;10.77;4.85;;;;;;;2.89;70.10;98948.69;5009237;28;20137;-65
2021/11/30 07:41:35;;;;;;;11.27;5.40;;;;;;;2.81;70.62;98935.13;5007244;28;20168;-65
2021/11/30 07:44:08;;;;;;;8.70;4.68;;;;;;;2.58;70.30;98929.66;5005940;28;20469;-67
2021/11/30 07:46:39;;;;;;;9.50;4.55;;;;;;;2.45;71.13;98930.25;5001568;28;20042;-66
2021/11/30 07:49:09;;;;;;;13.75;5.32;;;;;;;2.42;71.49;98931.06;5013777;28;20052;-65
2021/11/30 07:51:39;;;;;;;9.82;4.57;;;;;;;2.42;71.61;98935.25;5006103;28;20049;-65
2021/11/30 07:54:12;;;;;;;9.55;5.03;;;;;;;2.38;72.49;98936.84;5005515;28;20495;-65
2021/11/30 07:56:42;;;;;;;11.95;4.47;;;;;;;2.47;72.90;98939.53;4995063;28;20050;-65
2021/11/30 07:59:13;;;;;;;10.30;4.38;;;;;;;2.45;72.63;98926.06;5004648;28;20118;-65
2021/11/30 08:01:42;;;;;;;9.30;4.43;;;;;;;2.46;72.64;98922.72;4998100;28;20068;-67
2021/11/30 08:04:11;;;;;;;11.02;5.28;;;;;;;2.60;72.64;98921.31;4998672;28;20042;-66
2021/11/30 08:06:41;;;;;;;14.27;8.55;;;;;;;2.83;72.39;98916.69;4998150;28;20105;-66
2021/11/30 08:09:10;;;;;;;13.10;5.82;;;;;;;3.01;72.47;98923.72;5000938;28;20038;-67
2021/11/30 08:11:39;;;;;;;10.27;4.85;;;;;;;3.05;72.60;98917.88;4999327;28;20042;-67
2021/11/30 08:14:10;;;;;;;;;;;;;;;3.06;71.94;98917.06;5008967;28;20092;-66
2021/11/30 08:16:41;;;;;;;8.50;4.28;;;;;;;3.02;71.63;98930.47;5002475;28;20256;-66
2021/11/30 08:19:11;;;;;;;11.43;4.85;;;;;;;3.03;72.48;98922.06;5000514;28;20176;-66
2021/11/30 08:21:41;;;;;;;14.05;5.90;;;;;;;3.29;71.83;98915.75;5008159;28;20044;-66
2021/11/30 08:24:10;;;;;;;14.43;4.93;;;;;;;3.45;71.38;98912.66;5003061;28;20049;-68
2021/11/30 08:26:40;;;;;;;7.90;4.47;;;;;;;3.47;70.84;98911.00;5009794;28;20645;-66
2021/11/30 08:29:09;;;;;;;7.82;4.70;;;;;;;3.57;70.94;98924.59;5000521;28;20050;-66
2021/11/30 08:31:40;;;;;;;9.60;5.85;;;;;;;3.72;70.02;98913.03;5007064;28;20046;-66
2021/11/30 08:34:12;;;;;;;9.50;4.47;;;;;;;3.81;69.09;98915.72;5014919;28;20042;-68
2021/11/30 08:36:41;;;;;;;7.85;4.28;;;;;;;3.81;69.51;98918.25;5011892;28;20074;-68
2021/11/30 08:39:10;;;;;;;8.93;4.20;;;;;;;3.74;69.07;98913.91;5000488;28;20046;-66
2021/11/30 08:41:40;;;;;;;10.43;4.45;;;;;;;3.83;69.18;98910.69;5005821;28;20041;-66
2021/11/30 08:44:25;;;;;;;8.15;4.00;;;;;;;3.86;68.66;98916.59;5009184;28;20049;-66
2021/11/30 08:46:56;;;;;;;;;;;;;;;3.92;68.18;98915.84;5004524;28;20038;-66
2021/11/30 08:49:26;;;;;;;6.78;3.53;;;;;;;4.05;67.70;98923.59;5008082;28;19925;-66
2021/11/30 08:51:58;;;;;;;8.60;4.40;;;;;;;4.11;67.18;98927.00;5007729;28;20412;-66
2021/11/30 08:54:29;;;;;;;6.93;3.90;;;;;;;4.16;67.80;98930.44;5008895;28;20041;-66
2021/11/30 08:56:59;;;;;;;8.13;4.22;;;;;;;4.21;67.79;98933.88;5012878;28;20034;-65
2021/11/30 08:59:29;;;;;;;7.70;4.18;;;;;;;4.35;66.88;98924.78;5014123;28;20039;-66
2021/11/30 09:02:01;;;;;;;10.23;4.03;;;;;;;4.44;67.25;98917.34;5009786;28;20073;-66
2021/11/30 09:04:31;;;;;;;7.28;3.85;;;;;;;4.57;66.40;98917.47;5006347;28;20049;-66
2021/11/30 09:07:00;;;;;;;6.23;3.40;;;;;;;4.72;66.35;98914.25;5012717;28;20046;-68
2021/11/30 09:09:30;;;;;;;7.97;4.05;;;;;;;4.76;65.95;98898.28;5008418;28;20291;-66
2021/11/30 09:12:05;;;;;;;5.97;3.10;;;;;;;4.80;65.44;98902.53;5003595;28;20493;-66
2021/11/30 09:14:34;;;;;;;5.68;3.33;;;;;;;4.81;64.59;98905.91;5008293;28;20133;-66
2021/11/30 09:17:06;;;;;;;6.82;3.50;;;;;;;4.75;64.53;98904.19;5015821;28;20129;-66
2021/11/30 09:19:35;;;;;;;6.25;3.58;;;;;;;5.04;64.46;98901.94;5011400;28;20117;-68
2021/11/30 09:22:09;;;;;;;5.97;3.30;;;;;;;5.28;64.21;98897.91;5014429;28;20046;-66
2021/11/30 09:24:38;;;;;;;7.05;3.58;;;;;;;5.51;64.28;98884.56;5014078;28;20147;-66
2021/11/30 09:27:07;;;;;;;7.13;3.17;;;;;;;5.73;63.09;98891.47;5014511;28;20042;-66
2021/11/30 09:29:36;;;;;;;4.30;2.53;;;;;;;5.85;63.01;98881.44;5012131;28;20128;-68
2021/11/30 09:32:10;;;;;;;6.47;2.63;;;;;;;5.86;62.06;98893.22;5008588;28;20048;-67
2021/11/30 09:35:00;;;;;;;4.45;2.40;;;;;;;5.85;61.56;98886.50;4998467;28;20057;-66
2021/11/30 09:37:30;;;;;;;5.95;3.00;;;;;;;5.83;60.58;98872.94;5012593;28;20387;-66
2021/11/30 09:39:59;;;;;;;6.88;3.20;;;;;;;5.69;60.48;98875.38;5012976;28;20510;-66
2021/11/30 09:42:28;;;;;;;4.70;2.88;;;;;;;5.55;60.69;98876.16;5012735;28;20049;-66
2021/11/30 09:44:57;;;;;;;4.55;2.45;;;;;;;5.34;61.21;98872.66;5013051;28;20465;-66
2021/11/30 09:47:29;;;;;;;4.88;2.50;;;;;;;5.24;61.25;98864.97;5013658;28;20138;-66
2021/11/30 09:49:58;;;;;;;4.57;2.28;;;;;;;5.10;61.83;98869.94;5009858;28;20046;-68
2021/11/30 09:52:28;;;;;;;4.90;2.55;;;;;;;4.94;61.78;98852.97;5015714;28;20054;-66
2021/11/30 09:54:57;;;;;;;5.28;2.75;;;;;;;4.87;62.27;98861.31;5013312;28;20048;-67
2021/11/30 09:57:31;;;;;;;3.72;2.13;;;;;;;4.74;62.67;98852.78;5010850;28;20069;-68
2021/11/30 10:00:03;;;;;;;4.28;2.45;;;;;;;4.73;63.12;98840.13;5013197;28;20038;-67
2021/11/30 10:02:56;;;;;;;6.13;2.42;;;;;;;4.74;64.16;98841.84;5011703;28;20046;-66
2021/11/30 10:05:25;;;;;;;4.78;2.40;;;;;;;4.83;64.02;98849.50;5014022;28;20048;-67
2021/11/30 10:07:56;;;;;;;5.07;2.65;;;;;;;4.89;64.56;98856.28;5011206;28;20085;-66
2021/11/30 10:10:29;;;;;;;4.80;2.67;;;;;;;4.86;64.85;98836.88;5006054;28;20120;-66
2021/11/30 10:13:11;;;;;;;5.53;2.92;;;;;;;4.84;64.79;98830.97;5015462;28;20085;-67
2021/11/30 10:16:00;;;;;;;4.03;2.42;;;;;;;4.68;64.45;98824.06;5013882;28;20122;-67
2021/11/30 10:18:32;;;;;;;7.00;2.70;;;;;;;4.56;65.04;98821.44;5010371;28;20042;-69
2021/11/30 10:21:20;;;;;;;4.10;2.00;;;;;;;4.49;65.16;98827.25;5008030;28;20046;-66
2021/11/30 10:23:53;;;;;;;4.78;2.72;;;;;;;4.56;65.62;98816.38;5014594;28;20046;-66
2021/11/30 10:26:25;;;;;;;5.22;2.38;;;;;;;4.62;65.89;98816.44;5003189;28;20062;-67
2021/11/30 10:28:56;;;;;;;5.60;3.00;;;;;;;4.64;65.84;98809.72;5010106;28;20048;-66
2021/11/30 10:31:32;;;;;;;6.63;3.10;;;;;;;4.65;66.47;98806.38;5005422;28;20064;-68
2021/11/30 10:34:11;;;;;;;5.88;2.80;;;;;;;4.51;66.46;98793.59;5012537;28;20129;-67
2021/11/30 10:36:48;;;;;;;5.03;3.00;;;;;;;4.31;66.80;98784.16;5010812;28;20120;-67
2021/11/30 10:39:19;;;;;;;6.53;2.80;;;;;;;4.35;67.24;98785.88;5015357;28;20049;-67
2021/11/30 10:41:49;;;;;;;4.78;2.72;;;;;;;4.36;67.69;98777.47;5012252;28;20096;-66
2021/11/30 10:44:29;;;;;;;6.80;3.10;;;;;;;4.34;67.86;98779.16;5011223;28;20049;-67
2021/11/30 10:47:10;;;;;;;5.63;3.33;;;;;;;4.31;68.35;98779.13;5008647;28;20483;-67
2021/11/30 10:49:49;;;;;;;6.63;2.58;;;;;;;4.30;68.76;98774.88;5014768;28;20050;-67
2021/11/30 10:52:21;;;;;;;5.63;3.15;;;;;;;4.26;68.59;98768.13;5011773;28;20488;-67
2021/11/30 10:54:52;;;;;;;4.20;2.47;;;;;;;4.15;68.49;98744.47;5008735;28;20096;-66
2021/11/30 10:57:29;;;;;;;6.75;3.00;;;;;;;4.26;68.98;98760.53;5012883;28;20052;-67
2021/11/30 11:00:09;;;;;;;5.20;2.90;;;;;;;4.19;68.66;98769.75;5009219;28;20042;-67
2021/11/30 11:02:51;;;;;;;6.30;3.28;;;;;;;4.10;69.00;98739.38;5008968;28;20050;-67
2021/11/30 11:05:28;;;;;;;6.05;3.58;;;;;;;4.04;69.27;98740.16;5009871;28;20061;-67
2021/11/30 11:08:06;;;;;;;7.03;3.38;;;;;;;4.15;70.25;98736.88;5014590;28;20484;-68
2021/11/30 11:10:38;;;;;;;5.93;2.83;;;;;;;4.20;70.30;98722.63;5010195;28;20069;-67
2021/11/30 11:13:21;;;;;;;6.82;3.38;;;;;;;4.16;70.52;98729.31;5013653;28;20068;-68
2021/11/30 11:15:52;;;;;;;6.53;3.58;;;;;;;4.04;70.66;98709.84;5008119;28;20510;-67
2021/11/30 11:18:23;;;;;;;5.20;2.80;;;;;;;4.10;70.66;98713.28;5007897;28;20519;-67
2021/11/30 11:21:13;;;;;;;6.80;3.88;;;;;;;4.12;70.76;98706.56;5010354;28;20100;-67
2021/11/30 11:23:45;;;;;;;5.03;3.13;;;;;;;4.18;71.70;98701.53;5006729;28;20030;-68
2021/11/30 11:26:22;;;;;;;5.68;3.15;;;;;;;4.25;70.76;98703.31;5009883;28;20132;-67
2021/11/30 11:28:53;;;;;;;6.88;3.58;;;;;;;4.28;71.23;98695.75;5011844;28;20056;-66
2021/11/30 11:31:25;;;;;;;5.93;3.30;;;;;;;4.17;71.73;98659.47;5011673;28;20140;-66
2021/11/30 11:33:55;;;;;;;6.05;3.38;;;;;;;4.32;71.90;98664.66;5012475;28;20045;-67
2021/11/30 11:36:26;;;;;;;8.93;3.40;;;;;;;4.39;71.43;98671.44;5011699;28;20069;-67
2021/11/30 11:38:56;;;;;;;8.20;3.70;;;;;;;4.42;71.18;98666.38;5014039;28;20249;-67
2021/11/30 11:41:25;;;;;;;6.07;3.15;;;;;;;4.49;71.92;98652.97;4999470;28;20415;-67
2021/11/30 11:43:55;;;;;;;5.90;3.30;;;;;;;4.52;71.57;98647.94;5006473;28;20041;-67
2021/11/30 11:46:25;;;;;;;9.30;3.55;;;;;;;4.49;71.81;98643.72;5008351;28;20136;-67
2021/11/30 11:48:58;;;;;;;6.22;3.63;;;;;;;4.42;71.47;98631.03;5003562;28;21059;-67
2021/11/30 11:51:38;;;;;;;6.35;3.35;;;;;;;4.50;71.47;98630.25;5000962;28;20069;-67
2021/11/30 11:54:21;;;;;;;6.32;3.55;;;;;;;4.57;71.98;98618.50;5000269;28;20096;-67
2021/11/30 11:56:56;;;;;;;8.98;3.78;;;;;;;4.57;72.07;98605.88;5001901;28;20535;-67
2021/11/30 11:59:32;;;;;;;6.85;3.22;;;;;;;4.60;71.52;98595.78;4997367;28;20040;-67
2021/11/30 12:02:15;;;;;;;5.70;3.00;;;;;;;4.61;71.79;98592.41;5003353;28;20039;-70
2021/11/30 12:04:45;;;;;;;5.65;3.08;;;;;;;4.69;71.94;98585.72;5001706;28;20450;-67
2021/11/30 12:07:16;;;;;;;5.63;3.05;;;;;;;4.67;71.56;98582.34;5001961;28;20060;-68